createdAt,value
2022-12-23T00:01:26.686Z,4.85
2022-12-23T00:03:56.631Z,5.53
2022-12-23T00:06:23.181Z,5.88
2022-12-23T00:08:49.706Z,5.38
2022-12-23T00:11:19.117Z,6.82
2022-12-23T00:14:04.656Z,6.68
2022-12-23T00:16:31.369Z,6.03
2022-12-23T00:18:57.894Z,12.35
2022-12-23T00:21:24.407Z,8.60
2022-12-23T00:23:51.805Z,11.05
2022-12-23T00:26:24.525Z,11.05
2022-12-23T00:28:51.506Z,14.70
2022-12-23T00:31:19.194Z,12.70
2022-12-23T00:33:48.979Z,13.38
2022-12-23T00:36:18.417Z,10.90
2022-12-23T00:39:04.581Z,7.38
2022-12-23T00:41:50.198Z,6.03
2022-12-23T00:44:16.980Z,6.22
2022-12-23T00:46:43.643Z,6.22
2022-12-23T00:49:31.494Z,9.23
2022-12-23T00:51:58.735Z,6.38
2022-12-23T00:54:25.351Z,6.47
2022-12-23T00:56:51.869Z,5.82
2022-12-23T00:59:18.454Z,6.63
2022-12-23T01:02:03.558Z,7.93
2022-12-23T01:04:48.895Z,10.55
2022-12-23T01:07:15.482Z,6.70
2022-12-23T01:09:41.982Z,12.13
2022-12-23T01:12:08.714Z,6.05
2022-12-23T01:14:35.929Z,6.78
2022-12-23T01:17:02.939Z,5.65
2022-12-23T01:19:29.511Z,9.70
2022-12-23T01:21:56.166Z,7.88
2022-12-23T01:24:22.956Z,5.90
2022-12-23T01:26:49.534Z,6.97
2022-12-23T01:29:16.136Z,5.57
2022-12-23T01:31:42.711Z,8.23
2022-12-23T01:34:10.645Z,5.22
2022-12-23T01:36:37.230Z,6.65
2022-12-23T01:39:04.433Z,8.07
2022-12-23T01:41:51.214Z,6.95
2022-12-23T01:44:49.253Z,9.43
2022-12-23T01:47:34.194Z,7.35
2022-12-23T01:50:15.314Z,5.97
2022-12-23T01:52:49.666Z,5.65
2022-12-23T01:55:20.963Z,5.13
2022-12-23T01:57:48.521Z,5.83
2022-12-23T02:00:34.371Z,5.10
2022-12-23T02:03:19.464Z,8.05
2022-12-23T02:05:47.467Z,7.47
2022-12-23T02:08:50.821Z,4.90
2022-12-23T02:11:34.441Z,8.37
2022-12-23T02:14:22.398Z,5.55
2022-12-23T02:17:00.582Z,8.00
2022-12-23T02:20:05.664Z,6.25
2022-12-23T02:23:10.160Z,6.03
2022-12-23T02:25:54.534Z,6.47
2022-12-23T02:28:55.520Z,5.78
2022-12-23T02:31:59.660Z,5.15
2022-12-23T02:34:54.704Z,10.73
2022-12-23T02:37:30.072Z,5.65
2022-12-23T02:40:24.467Z,9.93
2022-12-23T02:43:19.326Z,6.90
2022-12-23T02:45:55.229Z,9.02
2022-12-23T02:48:37.422Z,4.55
2022-12-23T02:51:07.940Z,5.95
2022-12-23T02:53:38.420Z,6.97
2022-12-23T02:56:08.804Z,6.85
2022-12-23T02:58:42.214Z,7.35
2022-12-23T03:01:11.393Z,9.70
2022-12-23T03:03:40.139Z,6.68
2022-12-23T03:06:18.104Z,6.57
2022-12-23T03:08:45.705Z,7.28
2022-12-23T03:11:15.544Z,9.98
2022-12-23T03:14:18.728Z,11.25
2022-12-23T03:16:53.781Z,6.88
2022-12-23T03:19:34.007Z,7.50
2022-12-23T03:22:25.930Z,7.82
2022-12-23T03:24:55.541Z,6.60
2022-12-23T03:27:36.477Z,7.20
2022-12-23T03:30:08.449Z,9.70
2022-12-23T03:32:44.027Z,7.13
2022-12-23T03:35:16.182Z,7.47
2022-12-23T03:37:45.783Z,10.90
2022-12-23T03:40:19.716Z,6.82
2022-12-23T03:42:51.581Z,8.27
2022-12-23T03:45:38.645Z,9.53
2022-12-23T03:48:13.829Z,8.93
2022-12-23T03:50:43.052Z,8.75
2022-12-23T03:53:17.035Z,10.25
2022-12-23T03:55:59.265Z,11.68
2022-12-23T03:58:39.727Z,6.83
2022-12-23T04:01:37.223Z,9.52
2022-12-23T04:04:11.393Z,6.70
2022-12-23T04:06:51.871Z,9.60
2022-12-23T04:09:22.371Z,7.45
2022-12-23T04:11:49.734Z,7.67
2022-12-23T04:14:21.086Z,6.63
2022-12-23T04:16:49.732Z,8.77
2022-12-23T04:19:16.543Z,8.20
2022-12-23T04:21:43.041Z,7.55
2022-12-23T04:24:09.576Z,5.10
2022-12-23T04:26:36.119Z,7.55
2022-12-23T04:29:02.740Z,5.03
2022-12-23T04:31:29.318Z,8.40
2022-12-23T04:33:55.821Z,6.25
2022-12-23T04:36:22.328Z,4.90
2022-12-23T04:38:49.067Z,5.07
2022-12-23T04:41:15.696Z,6.13
2022-12-23T04:43:42.597Z,5.28
2022-12-23T04:46:10.207Z,4.93
2022-12-23T04:48:36.786Z,5.67
2022-12-23T04:51:03.784Z,5.65
2022-12-23T04:53:30.306Z,6.20
2022-12-23T04:55:56.851Z,4.40
2022-12-23T04:58:25.104Z,6.15
2022-12-23T05:01:02.088Z,4.33
2022-12-23T05:03:29.031Z,4.95
2022-12-23T05:05:55.618Z,7.07
2022-12-23T05:08:22.572Z,5.57
2022-12-23T05:10:49.222Z,9.57
2022-12-23T05:13:15.911Z,6.33
2022-12-23T05:15:46.076Z,4.97
2022-12-23T05:18:12.972Z,6.07
2022-12-23T05:20:40.212Z,5.63
2022-12-23T05:23:06.978Z,8.18
2022-12-23T05:25:35.222Z,5.13
2022-12-23T05:28:02.510Z,4.97
2022-12-23T05:30:29.714Z,5.32
2022-12-23T05:32:57.160Z,5.25
2022-12-23T05:35:25.540Z,7.90
2022-12-23T05:37:52.741Z,4.90
2022-12-23T05:40:23.648Z,4.38
2022-12-23T05:42:51.474Z,5.57
2022-12-23T05:45:18.148Z,15.25
2022-12-23T05:47:44.685Z,7.03
2022-12-23T05:50:11.886Z,6.10
2022-12-23T05:52:38.631Z,4.63
2022-12-23T05:55:06.055Z,5.22
2022-12-23T05:57:32.686Z,6.95
2022-12-23T05:59:59.299Z,6.57
2022-12-23T06:02:25.882Z,6.70
2022-12-23T06:04:52.510Z,7.15
2022-12-23T06:07:18.990Z,7.47
2022-12-23T06:09:45.629Z,4.47
2022-12-23T06:12:12.323Z,6.45
2022-12-23T06:14:38.921Z,5.40
2022-12-23T06:17:05.543Z,4.40
2022-12-23T06:19:32.057Z,5.32
2022-12-23T06:21:58.798Z,8.05
2022-12-23T06:24:25.387Z,4.47
2022-12-23T06:26:56.691Z,5.33
2022-12-23T06:29:24.322Z,5.25
2022-12-23T06:31:51.021Z,5.57
2022-12-23T06:34:18.053Z,5.43
2022-12-23T06:36:44.651Z,6.60
2022-12-23T06:39:11.599Z,4.87
2022-12-23T06:41:38.309Z,7.60
2022-12-23T06:44:05.382Z,4.65
2022-12-23T06:46:32.025Z,4.88
2022-12-23T06:48:58.632Z,6.03
2022-12-23T06:51:25.095Z,5.07
2022-12-23T06:53:51.714Z,6.20
2022-12-23T06:56:18.809Z,8.95
2022-12-23T06:58:45.454Z,5.20
2022-12-23T07:01:14.954Z,5.15
2022-12-23T07:03:41.701Z,6.23
2022-12-23T07:06:08.267Z,5.60
2022-12-23T07:08:34.859Z,5.85
2022-12-23T07:11:03.496Z,10.10
2022-12-23T07:13:31.667Z,5.45
2022-12-23T07:15:58.811Z,7.20
2022-12-23T07:18:26.221Z,6.57
2022-12-23T07:20:53.071Z,7.60
2022-12-23T07:23:19.619Z,7.68
2022-12-23T07:25:46.175Z,6.53
2022-12-23T07:28:12.679Z,10.00
2022-12-23T07:30:39.355Z,6.55
2022-12-23T07:33:06.000Z,7.93
2022-12-23T07:35:32.784Z,7.53
2022-12-23T07:37:59.428Z,7.47
2022-12-23T07:40:26.626Z,7.20
2022-12-23T07:42:58.084Z,7.30
2022-12-23T07:45:26.093Z,13.15
2022-12-23T07:47:56.111Z,9.15
2022-12-23T07:50:23.033Z,10.45
2022-12-23T07:52:49.576Z,7.70
2022-12-23T07:55:16.337Z,11.20
2022-12-23T07:57:42.938Z,10.35
2022-12-23T08:00:11.816Z,7.03
2022-12-23T08:02:38.419Z,6.28
2022-12-23T08:05:08.716Z,11.37
2022-12-23T08:07:35.608Z,9.48
2022-12-23T08:10:02.989Z,6.70
2022-12-23T08:12:29.720Z,8.60
2022-12-23T08:14:56.323Z,9.00
2022-12-23T08:17:26.350Z,7.83
2022-12-23T08:19:53.451Z,11.68
2022-12-23T08:22:20.174Z,10.27
2022-12-23T08:24:46.768Z,9.77
2022-12-23T08:27:17.107Z,11.00
2022-12-23T08:29:43.657Z,13.07
2022-12-23T08:32:10.295Z,12.40
2022-12-23T08:34:36.846Z,14.20
2022-12-23T08:37:03.442Z,11.80
2022-12-23T08:39:30.020Z,15.00
2022-12-23T08:41:56.626Z,13.57
2022-12-23T08:44:23.294Z,12.82
2022-12-23T08:46:50.020Z,17.05
2022-12-23T08:49:16.579Z,13.60
2022-12-23T08:51:49.092Z,14.63
2022-12-23T08:54:15.951Z,17.03
2022-12-23T08:56:42.614Z,12.48
2022-12-23T08:59:18.988Z,12.95
2022-12-23T09:01:47.348Z,12.05
2022-12-23T09:04:16.242Z,14.25
2022-12-23T09:06:43.765Z,13.70
2022-12-23T09:09:13.044Z,13.75
2022-12-23T09:11:39.868Z,13.60
2022-12-23T09:14:08.670Z,14.57
2022-12-23T09:16:35.810Z,15.52
2022-12-23T09:19:02.930Z,16.67
2022-12-23T09:21:29.508Z,16.77
2022-12-23T09:23:56.115Z,15.30
2022-12-23T09:26:25.686Z,15.73
2022-12-23T09:28:52.935Z,18.55
2022-12-23T09:31:20.617Z,16.37
2022-12-23T09:33:49.195Z,18.45
2022-12-23T09:36:16.679Z,18.20
2022-12-23T09:38:43.287Z,18.60
2022-12-23T09:41:35.564Z,24.00
2022-12-23T09:44:08.005Z,17.20
2022-12-23T09:46:38.392Z,14.73
2022-12-23T09:49:11.678Z,17.83
2022-12-23T09:51:38.559Z,20.85
2022-12-23T09:54:19.059Z,24.58
2022-12-23T09:56:53.235Z,18.90
2022-12-23T09:59:44.717Z,21.90
2022-12-23T10:02:23.507Z,21.60
2022-12-23T10:05:02.968Z,22.33
2022-12-23T10:07:52.501Z,18.33
2022-12-23T10:10:37.211Z,21.93
2022-12-23T10:13:07.223Z,15.05
2022-12-23T10:15:40.963Z,15.02
2022-12-23T10:18:20.394Z,16.98
2022-12-23T10:20:52.900Z,14.38
2022-12-23T10:23:30.358Z,16.03
2022-12-23T10:25:57.057Z,14.85
2022-12-23T10:28:23.650Z,13.05
2022-12-23T10:31:38.555Z,14.23
2022-12-23T10:34:12.676Z,15.38
2022-12-23T10:36:52.087Z,16.77
2022-12-23T10:39:35.424Z,15.82
2022-12-23T10:42:10.707Z,14.68
2022-12-23T10:45:18.917Z,15.20
2022-12-23T10:48:00.102Z,13.90
2022-12-23T10:50:29.364Z,12.93
2022-12-23T10:52:59.658Z,18.50
2022-12-23T10:55:33.733Z,18.30
2022-12-23T10:58:14.496Z,11.35
2022-12-23T11:00:46.518Z,10.63
2022-12-23T11:03:19.288Z,15.70
2022-12-23T11:05:49.810Z,15.90
2022-12-23T11:08:16.629Z,15.15
2022-12-23T11:10:43.331Z,15.18
2022-12-23T11:13:09.869Z,10.60
2022-12-23T11:15:39.971Z,14.37
2022-12-23T11:18:06.443Z,17.20
2022-12-23T11:20:35.116Z,13.70
2022-12-23T11:23:03.720Z,13.25
2022-12-23T11:25:35.533Z,17.35
2022-12-23T11:28:22.326Z,15.67
2022-12-23T11:30:56.586Z,14.80
2022-12-23T11:33:28.434Z,17.52
2022-12-23T11:36:03.266Z,20.73
2022-12-23T11:38:30.815Z,17.80
2022-12-23T11:40:57.875Z,20.33
2022-12-23T11:43:26.708Z,27.67
2022-12-23T11:46:26.452Z,19.73
2022-12-23T11:49:13.763Z,19.10
2022-12-23T11:51:43.965Z,23.73
2022-12-23T11:54:19.631Z,40.03
2022-12-23T11:56:52.929Z,22.63
2022-12-23T11:59:37.137Z,28.73
2022-12-23T12:02:12.856Z,35.42
2022-12-23T12:04:41.929Z,27.67
2022-12-23T12:07:13.545Z,26.40
2022-12-23T12:09:42.326Z,31.75
2022-12-23T12:12:17.173Z,30.33
2022-12-23T12:14:54.541Z,30.15
2022-12-23T12:17:27.983Z,25.35
2022-12-23T12:20:18.795Z,25.53
2022-12-23T12:22:54.713Z,27.95
2022-12-23T12:25:33.939Z,30.08
2022-12-23T12:28:07.133Z,31.80
2022-12-23T12:30:40.165Z,27.30
2022-12-23T12:33:23.220Z,22.37
2022-12-23T12:36:03.371Z,23.05
2022-12-23T12:38:34.787Z,23.25
2022-12-23T12:41:16.082Z,22.42
2022-12-23T12:43:52.683Z,19.10
2022-12-23T12:46:32.671Z,20.40
2022-12-23T12:49:24.951Z,21.92
2022-12-23T12:51:58.856Z,17.23
2022-12-23T12:54:31.974Z,21.00
2022-12-23T12:56:59.996Z,21.15
2022-12-23T12:59:31.321Z,15.77
2022-12-23T13:02:22.855Z,14.95
2022-12-23T13:05:15.808Z,20.50
2022-12-23T13:07:55.841Z,15.75
2022-12-23T13:10:31.311Z,22.52
2022-12-23T13:13:04.500Z,15.97
2022-12-23T13:15:45.093Z,20.10
2022-12-23T13:18:37.160Z,12.48
2022-12-23T13:21:19.059Z,18.40
2022-12-23T13:24:03.435Z,15.95
2022-12-23T13:26:37.199Z,18.30
2022-12-23T13:29:57.813Z,21.40
2022-12-23T13:33:05.183Z,17.80
2022-12-23T13:35:50.155Z,16.40
2022-12-23T13:38:41.145Z,15.75
2022-12-23T13:41:21.895Z,14.97
2022-12-23T13:43:57.890Z,14.18
2022-12-23T13:46:38.440Z,14.10
2022-12-23T13:49:19.999Z,16.58
2022-12-23T13:51:57.059Z,14.57
2022-12-23T13:54:47.516Z,14.90
2022-12-23T13:57:46.696Z,15.95
2022-12-23T14:00:19.012Z,13.00
2022-12-23T14:02:52.010Z,15.50
2022-12-23T14:05:38.957Z,11.13
2022-12-23T14:08:31.597Z,11.30
2022-12-23T14:11:02.680Z,13.40
2022-12-23T14:13:40.801Z,14.15
2022-12-23T14:16:25.637Z,13.77
2022-12-23T14:19:14.237Z,10.85
2022-12-23T14:21:57.399Z,11.93
2022-12-23T14:24:48.457Z,11.27
2022-12-23T14:27:30.156Z,17.95
2022-12-23T14:30:15.563Z,13.98
2022-12-23T14:32:48.260Z,10.75
2022-12-23T14:35:36.950Z,11.60
2022-12-23T14:38:24.511Z,9.48
2022-12-23T14:40:54.618Z,9.90
2022-12-23T14:43:52.695Z,14.55
2022-12-23T14:46:37.211Z,12.27
2022-12-23T14:49:37.068Z,11.97
2022-12-23T14:51:51.055Z,11.23
2022-12-23T14:54:36.660Z,10.25
2022-12-23T14:57:16.936Z,11.68
2022-12-23T14:59:56.930Z,13.20
2022-12-23T15:02:35.348Z,10.50
2022-12-23T15:05:02.623Z,8.70
2022-12-23T15:07:34.797Z,9.30
2022-12-23T15:10:05.466Z,10.75
2022-12-23T15:12:37.252Z,8.25
2022-12-23T15:15:25.483Z,9.07
2022-12-23T15:18:11.601Z,9.60
2022-12-23T15:20:39.102Z,8.35
2022-12-23T15:23:14.951Z,14.68
2022-12-23T15:25:46.101Z,8.15
2022-12-23T15:28:19.118Z,12.00
2022-12-23T15:30:52.754Z,7.38
2022-12-23T15:36:11.642Z,10.60
2022-12-23T15:38:39.351Z,10.32
2022-12-23T15:41:15.614Z,9.40
2022-12-23T15:43:43.464Z,11.98
2022-12-23T15:46:16.933Z,8.48
2022-12-23T15:48:43.934Z,9.02
2022-12-23T15:54:29.543Z,9.00
2022-12-23T15:56:57.808Z,9.20
2022-12-23T15:59:29.303Z,9.07
2022-12-23T16:01:56.229Z,7.70
2022-12-23T16:04:27.012Z,13.10
2022-12-23T16:06:55.172Z,8.00
2022-12-23T16:09:21.698Z,7.90
2022-12-23T16:11:56.416Z,9.35
2022-12-23T16:14:50.173Z,10.63
2022-12-23T16:17:30.334Z,7.63
2022-12-23T16:20:20.490Z,10.23
2022-12-23T16:22:51.193Z,7.82
2022-12-23T16:25:23.060Z,7.93
2022-12-23T16:27:56.937Z,8.70
2022-12-23T16:30:34.033Z,7.07
2022-12-23T16:33:03.350Z,7.30
2022-12-23T16:35:30.048Z,7.00
2022-12-23T16:38:16.961Z,8.00
2022-12-23T16:40:49.519Z,7.07
2022-12-23T16:43:16.881Z,10.07
2022-12-23T16:45:45.043Z,7.33
2022-12-23T16:48:20.523Z,7.40
2022-12-23T16:50:48.631Z,6.75
2022-12-23T16:53:15.800Z,7.03
2022-12-23T16:55:50.226Z,7.65
2022-12-23T16:58:18.015Z,7.30
2022-12-23T17:00:44.954Z,6.65
2022-12-23T17:03:19.719Z,9.38
2022-12-23T17:05:47.518Z,7.13
2022-12-23T17:08:14.081Z,8.43
2022-12-23T17:10:42.462Z,9.40
2022-12-23T17:13:11.765Z,7.75
2022-12-23T17:15:38.364Z,8.98
2022-12-23T17:18:15.305Z,7.60
2022-12-23T17:20:44.828Z,10.65
2022-12-23T17:23:31.079Z,8.63
2022-12-23T17:25:57.995Z,7.13
2022-12-23T17:28:31.137Z,7.25
2022-12-23T17:30:58.944Z,13.73
2022-12-23T17:33:29.590Z,9.80
2022-12-23T17:35:56.392Z,9.80
2022-12-23T17:38:23.565Z,10.63
2022-12-23T17:40:50.774Z,7.53
2022-12-23T17:43:21.655Z,6.53
2022-12-23T17:45:48.413Z,7.45
2022-12-23T17:48:20.191Z,8.67
2022-12-23T17:50:48.058Z,9.52
2022-12-23T17:53:18.150Z,7.45
2022-12-23T17:55:45.209Z,7.30
2022-12-23T17:58:14.416Z,6.47
2022-12-23T18:00:41.416Z,7.73
2022-12-23T18:03:21.623Z,7.38
2022-12-23T18:05:48.294Z,9.50
2022-12-23T18:08:14.999Z,5.65
2022-12-23T18:10:41.821Z,7.70
2022-12-23T18:13:14.217Z,7.63
2022-12-23T18:15:43.363Z,5.32
2022-12-23T18:18:17.926Z,7.85
2022-12-23T18:20:51.444Z,5.80
2022-12-23T18:23:31.305Z,10.98
2022-12-23T18:25:58.779Z,7.93
2022-12-23T18:28:25.750Z,6.63
2022-12-23T18:30:54.763Z,12.80
2022-12-23T18:33:21.954Z,8.95
2022-12-23T18:35:49.560Z,8.77
2022-12-23T18:38:17.695Z,15.97
2022-12-23T18:40:44.943Z,13.55
2022-12-23T18:43:20.536Z,11.65
2022-12-23T18:45:52.446Z,16.13
2022-12-23T18:48:19.992Z,16.45
2022-12-23T18:50:46.794Z,18.93
2022-12-23T18:53:24.554Z,24.38
2022-12-23T18:55:52.905Z,31.95
2022-12-23T18:58:20.538Z,24.58
2022-12-23T19:00:48.637Z,22.48
2022-12-23T19:03:42.012Z,24.10
2022-12-23T19:06:11.889Z,26.15
2022-12-23T19:08:39.115Z,31.38
2022-12-23T19:11:18.430Z,26.33
2022-12-23T19:13:45.405Z,28.27
2022-12-23T19:16:17.473Z,27.77
2022-12-23T19:18:45.340Z,103.35
2022-12-23T19:21:12.602Z,26.15
2022-12-23T19:23:41.023Z,22.38
2022-12-23T19:26:10.410Z,30.02
2022-12-23T19:28:38.286Z,29.27
2022-12-23T19:31:14.794Z,22.95
2022-12-23T19:33:45.881Z,20.92
2022-12-23T19:36:19.608Z,43.55
2022-12-23T19:38:46.819Z,24.15
2022-12-23T19:41:13.440Z,19.73
2022-12-23T19:43:42.749Z,25.98
2022-12-23T19:46:15.575Z,29.05
2022-12-23T19:48:42.634Z,34.22
2022-12-23T19:51:12.869Z,13.45
2022-12-23T19:53:40.873Z,31.87
2022-12-23T19:56:12.026Z,22.67
2022-12-23T19:58:40.848Z,23.38
2022-12-23T20:01:16.639Z,24.33
2022-12-23T20:03:44.572Z,28.25
2022-12-23T20:06:17.275Z,24.73
2022-12-23T20:08:43.987Z,53.85
2022-12-23T20:11:19.597Z,46.83
2022-12-23T20:13:46.433Z,50.75
2022-12-23T20:16:13.669Z,47.97
2022-12-23T20:18:40.361Z,38.33
2022-12-23T20:21:07.018Z,35.42
2022-12-23T20:23:34.668Z,43.75
2022-12-23T20:26:01.321Z,35.13
2022-12-23T20:28:28.196Z,28.55
2022-12-23T20:31:01.161Z,27.73
2022-12-23T20:33:27.820Z,60.88
2022-12-23T20:35:54.410Z,21.52
2022-12-23T20:38:20.959Z,22.65
2022-12-23T20:40:47.444Z,25.20
2022-12-23T20:43:15.511Z,22.43
2022-12-23T20:45:43.921Z,21.33
2022-12-23T20:48:10.565Z,34.20
2022-12-23T20:50:41.333Z,21.27
2022-12-23T20:53:09.038Z,19.45
2022-12-23T20:55:35.527Z,14.57
2022-12-23T20:58:22.284Z,18.42
2022-12-23T21:00:49.210Z,11.70
2022-12-23T21:03:15.812Z,17.05
2022-12-23T21:05:42.489Z,12.40
2022-12-23T21:08:09.211Z,12.83
2022-12-23T21:10:35.806Z,10.55
2022-12-23T21:13:03.810Z,10.00
2022-12-23T21:15:33.534Z,13.15
2022-12-23T21:18:00.210Z,15.05
2022-12-23T21:20:26.716Z,9.60
2022-12-23T21:22:53.342Z,12.40
2022-12-23T21:25:19.993Z,9.05
2022-12-23T21:27:46.520Z,14.77
2022-12-23T21:30:13.355Z,10.43
2022-12-23T21:32:40.180Z,13.73
2022-12-23T21:35:07.227Z,15.38
2022-12-23T21:37:33.739Z,11.60
2022-12-23T21:40:00.201Z,9.35
2022-12-23T21:42:26.729Z,12.85
2022-12-23T21:44:53.370Z,11.23
2022-12-23T21:47:20.155Z,12.60
2022-12-23T21:49:47.032Z,10.73
2022-12-23T21:52:13.747Z,13.93
2022-12-23T21:54:40.323Z,13.90
2022-12-23T21:57:06.853Z,6.50
2022-12-23T21:59:35.424Z,13.25
2022-12-23T22:02:02.371Z,15.57
2022-12-23T22:04:28.917Z,11.40
2022-12-23T22:06:55.467Z,9.43
2022-12-23T22:09:22.109Z,15.73
2022-12-23T22:11:49.240Z,7.97
2022-12-23T22:14:17.854Z,7.38
2022-12-23T22:16:44.527Z,9.15
2022-12-23T22:19:12.031Z,8.38
2022-12-23T22:21:42.607Z,10.80
2022-12-23T22:24:09.541Z,13.88
2022-12-23T22:26:36.405Z,7.95
2022-12-23T22:29:06.014Z,11.85
2022-12-23T22:31:47.398Z,20.10
2022-12-23T22:34:19.971Z,9.47
2022-12-23T22:36:47.127Z,13.18
2022-12-23T22:39:20.113Z,15.93
2022-12-23T22:41:48.062Z,6.00
2022-12-23T22:44:15.071Z,15.85
2022-12-23T22:46:42.075Z,12.37
2022-12-23T22:49:12.176Z,12.18
2022-12-23T22:51:40.450Z,17.02
2022-12-23T22:54:07.667Z,17.55
2022-12-23T22:56:34.182Z,12.32
2022-12-23T22:59:00.737Z,9.03
2022-12-23T23:01:30.480Z,16.00
2022-12-23T23:03:58.858Z,18.08
2022-12-23T23:06:27.496Z,15.68
2022-12-23T23:08:55.060Z,27.55
2022-12-23T23:11:22.397Z,21.10
2022-12-23T23:13:49.143Z,22.48
2022-12-23T23:16:15.959Z,12.27
2022-12-23T23:18:42.766Z,15.80
2022-12-23T23:21:12.412Z,17.40
2022-12-23T23:23:38.969Z,16.07
2022-12-23T23:26:05.791Z,21.85
2022-12-23T23:28:32.354Z,12.68
2022-12-23T23:31:17.179Z,7.50
2022-12-23T23:33:45.460Z,7.60
2022-12-23T23:36:12.048Z,13.43
2022-12-23T23:38:38.653Z,12.70
2022-12-23T23:41:05.525Z,10.00
2022-12-23T23:43:32.240Z,12.30
2022-12-23T23:45:59.180Z,15.98
2022-12-23T23:48:25.743Z,11.33
2022-12-23T23:50:52.356Z,9.02
2022-12-23T23:53:18.851Z,15.40
2022-12-23T23:55:45.424Z,13.73
2022-12-23T23:58:12.341Z,15.48
